createdAt,value
2019-05-30T00:00:28.968Z,0.90
2019-05-30T00:02:58.601Z,1.60
2019-05-30T00:05:27.115Z,1.10
2019-05-30T00:07:56.135Z,1.10
2019-05-30T00:10:24.707Z,1.87
2019-05-30T00:12:54.579Z,0.95
2019-05-30T00:15:23.164Z,1.03
2019-05-30T00:17:51.572Z,1.30
2019-05-30T00:20:20.035Z,1.37
2019-05-30T00:22:48.425Z,1.27
2019-05-30T00:25:16.863Z,1.02
2019-05-30T00:27:45.288Z,1.20
2019-05-30T00:30:23.778Z,1.27
2019-05-30T00:32:43.818Z,1.30
2019-05-30T00:35:12.230Z,1.30
2019-05-30T00:37:40.639Z,1.20
2019-05-30T00:40:09.077Z,1.30
2019-05-30T00:42:37.491Z,1.47
2019-05-30T00:45:19.653Z,1.10
2019-05-30T00:47:36.232Z,1.45
2019-05-30T00:50:04.946Z,1.22
2019-05-30T00:52:33.383Z,1.12
2019-05-30T00:55:02.974Z,1.15
2019-05-30T00:57:31.454Z,1.47
2019-05-30T01:00:00.908Z,1.30
2019-05-30T01:02:29.513Z,1.25
2019-05-30T01:04:58.875Z,1.42
2019-05-30T01:07:27.353Z,1.22
2019-05-30T01:09:56.816Z,1.60
2019-05-30T01:12:25.317Z,1.77
2019-05-30T01:14:53.736Z,1.67
2019-05-30T01:17:22.172Z,1.40
2019-05-30T01:19:50.610Z,1.60
2019-05-30T01:22:19.040Z,1.37
2019-05-30T01:24:47.548Z,1.30
2019-05-30T01:27:15.964Z,1.42
2019-05-30T01:29:44.407Z,1.30
2019-05-30T01:32:28.057Z,1.05
2019-05-30T01:34:57.613Z,1.50
2019-05-30T01:37:26.327Z,1.40
2019-05-30T01:39:55.167Z,1.40
2019-05-30T01:42:23.577Z,1.30
2019-05-30T01:44:52.028Z,1.25
2019-05-30T01:47:20.437Z,1.32
2019-05-30T01:49:48.902Z,1.52
2019-05-30T01:52:17.318Z,1.87
2019-05-30T01:54:45.784Z,1.60
2019-05-30T01:57:14.207Z,1.20
2019-05-30T01:59:42.644Z,1.30
2019-05-30T02:02:11.076Z,1.35
2019-05-30T02:04:39.491Z,1.50
2019-05-30T02:07:07.924Z,1.30
2019-05-30T02:09:36.368Z,1.30
2019-05-30T02:12:05.573Z,1.57
2019-05-30T02:14:34.030Z,1.40
2019-05-30T02:17:03.587Z,1.37
2019-05-30T02:19:32.084Z,1.45
2019-05-30T02:22:01.634Z,1.57
2019-05-30T02:24:30.159Z,1.60
2019-05-30T02:26:59.966Z,1.90
2019-05-30T02:29:28.403Z,1.92
2019-05-30T02:31:56.846Z,1.62
2019-05-30T02:34:25.250Z,1.60
2019-05-30T02:36:53.695Z,1.55
2019-05-30T02:39:22.128Z,1.98
2019-05-30T02:41:50.550Z,1.50
2019-05-30T02:44:19.004Z,1.47
2019-05-30T02:46:47.425Z,1.60
2019-05-30T02:49:15.880Z,2.08
2019-05-30T02:51:44.283Z,1.50
2019-05-30T02:54:13.246Z,1.62
2019-05-30T02:56:44.866Z,1.70
2019-05-30T02:59:13.936Z,1.72
2019-05-30T03:01:58.910Z,2.17
2019-05-30T03:04:12.870Z,1.77
2019-05-30T03:06:41.405Z,1.75
2019-05-30T03:09:11.500Z,1.80
2019-05-30T03:11:39.924Z,1.65
2019-05-30T03:14:12.090Z,1.92
2019-05-30T03:16:38.465Z,2.10
2019-05-30T03:19:08.552Z,1.90
2019-05-30T03:21:36.949Z,2.00
2019-05-30T03:24:07.126Z,2.05
2019-05-30T03:26:35.514Z,1.80
2019-05-30T03:29:05.572Z,1.70
2019-05-30T03:31:34.007Z,1.72
2019-05-30T03:34:05.772Z,1.95
2019-05-30T03:36:32.518Z,2.22
2019-05-30T03:39:00.965Z,1.25
2019-05-30T03:41:29.450Z,1.60
2019-05-30T03:43:57.961Z,1.92
2019-05-30T03:46:27.953Z,1.40
2019-05-30T03:48:56.406Z,1.27
2019-05-30T03:51:24.820Z,1.45
2019-05-30T03:53:53.253Z,1.20
2019-05-30T03:56:35.466Z,1.27
2019-05-30T03:59:08.179Z,1.30
2019-05-30T04:01:42.498Z,1.40
2019-05-30T04:04:16.763Z,1.20
2019-05-30T04:06:48.100Z,1.25
2019-05-30T04:09:22.448Z,1.35
2019-05-30T04:11:53.777Z,1.52
2019-05-30T04:14:24.051Z,1.27
2019-05-30T04:16:52.465Z,1.47
2019-05-30T04:19:20.923Z,1.60
2019-05-30T04:21:49.330Z,1.40
2019-05-30T04:24:17.778Z,1.42
2019-05-30T04:26:48.925Z,1.10
2019-05-30T04:29:18.964Z,1.02
2019-05-30T04:31:47.478Z,0.93
2019-05-30T04:34:17.228Z,1.12
2019-05-30T04:36:45.995Z,1.45
2019-05-30T04:39:15.168Z,1.30
2019-05-30T04:41:43.761Z,1.40
2019-05-30T04:44:13.855Z,1.10
2019-05-30T04:46:42.316Z,1.27
2019-05-30T04:49:12.185Z,0.90
2019-05-30T04:51:40.824Z,0.90
2019-05-30T04:54:10.333Z,0.98
2019-05-30T04:56:39.402Z,1.20
2019-05-30T04:59:07.816Z,1.27
2019-05-30T05:01:36.254Z,1.32
2019-05-30T05:04:04.678Z,1.00
2019-05-30T05:06:33.116Z,1.10
2019-05-30T05:09:01.533Z,1.00
2019-05-30T05:11:29.976Z,1.00
2019-05-30T05:13:58.380Z,1.00
2019-05-30T05:16:35.562Z,1.00
2019-05-30T05:18:57.009Z,1.10
2019-05-30T05:21:25.424Z,1.42
2019-05-30T05:23:53.858Z,0.98
2019-05-30T05:26:22.283Z,1.20
2019-05-30T05:28:50.790Z,1.72
2019-05-30T05:31:20.326Z,1.17
2019-05-30T05:33:56.739Z,1.10
2019-05-30T05:36:19.355Z,0.70
2019-05-30T05:38:47.772Z,0.88
2019-05-30T05:41:16.229Z,1.00
2019-05-30T05:43:44.715Z,0.78
2019-05-30T05:46:13.155Z,0.90
2019-05-30T05:48:41.640Z,1.27
2019-05-30T05:51:11.262Z,3.60
2019-05-30T05:53:39.756Z,4.03
2019-05-30T05:56:08.233Z,4.08
2019-05-30T05:58:36.702Z,3.42
2019-05-30T06:01:05.472Z,4.47
2019-05-30T06:03:33.912Z,5.37
2019-05-30T06:06:02.353Z,6.67
2019-05-30T06:08:30.843Z,6.12
2019-05-30T06:10:59.304Z,6.67
2019-05-30T06:13:28.976Z,5.20
2019-05-30T06:18:31.435Z,7.60
2019-05-30T06:21:01.129Z,3.30
2019-05-30T06:23:29.611Z,1.85
2019-05-30T06:25:58.059Z,1.52
2019-05-30T06:28:26.523Z,2.75
2019-05-30T06:30:58.191Z,2.83
2019-05-30T06:35:54.441Z,3.00
2019-05-30T06:38:23.867Z,3.75
2019-05-30T06:40:52.383Z,5.22
2019-05-30T06:43:21.917Z,4.20
2019-05-30T06:45:50.414Z,2.70
2019-05-30T06:48:18.840Z,1.82
2019-05-30T06:50:47.303Z,2.33
2019-05-30T06:53:15.740Z,4.28
2019-05-30T06:55:44.154Z,2.72
2019-05-30T06:58:12.597Z,2.92
2019-05-30T07:00:41.029Z,2.60
2019-05-30T07:03:09.682Z,1.55
2019-05-30T07:05:38.932Z,1.75
2019-05-30T07:08:08.237Z,1.75
2019-05-30T07:10:37.174Z,1.92
2019-05-30T07:13:05.686Z,2.77
2019-05-30T07:15:36.612Z,1.95
2019-05-30T07:18:06.539Z,1.20
2019-05-30T07:20:35.747Z,0.70
2019-05-30T07:23:05.276Z,0.75
2019-05-30T07:25:36.046Z,0.95
2019-05-30T07:28:05.580Z,0.70
2019-05-30T07:30:36.123Z,0.53
2019-05-30T07:33:05.023Z,0.50
2019-05-30T07:35:34.162Z,0.35
2019-05-30T07:38:03.029Z,0.42
2019-05-30T07:40:32.804Z,0.60
2019-05-30T07:43:02.139Z,0.80
2019-05-30T07:45:35.080Z,0.80
2019-05-30T07:48:04.892Z,0.50
2019-05-30T07:50:34.582Z,0.40
2019-05-30T07:53:05.951Z,0.65
2019-05-30T07:55:35.191Z,0.90
2019-05-30T07:58:06.397Z,1.17
2019-05-30T08:00:35.640Z,1.32
2019-05-30T08:03:04.896Z,3.87
2019-05-30T08:05:33.338Z,1.92
2019-05-30T08:08:02.672Z,1.90
2019-05-30T08:10:33.693Z,2.15
2019-05-30T08:13:02.437Z,2.20
2019-05-30T08:15:31.371Z,2.20
2019-05-30T08:17:59.897Z,1.87
2019-05-30T08:20:29.574Z,1.75
2019-05-30T08:22:58.061Z,2.02
2019-05-30T08:25:26.502Z,1.75
2019-05-30T08:27:54.944Z,1.77
2019-05-30T08:30:23.363Z,1.70
2019-05-30T08:33:14.074Z,1.70
2019-05-30T08:38:31.052Z,2.10
2019-05-30T08:50:48.102Z,1.90
2019-05-30T08:53:16.574Z,2.00
2019-05-30T08:59:50.987Z,1.70
2019-05-30T09:06:03.319Z,1.60
2019-05-30T09:08:24.702Z,2.08
2019-05-30T09:11:00.404Z,1.80
2019-05-30T09:16:15.059Z,1.60
2019-05-30T09:18:43.622Z,1.80
2019-05-30T09:21:12.125Z,1.82
2019-05-30T09:29:56.592Z,0.90
2019-05-30T09:32:22.353Z,0.80
2019-05-30T09:35:10.186Z,0.70
2019-05-30T09:38:02.179Z,0.93
2019-05-30T09:45:48.031Z,1.22
2019-05-30T09:51:42.475Z,2.00
2019-05-30T09:54:11.763Z,2.58
2019-05-30T09:56:40.208Z,3.10
2019-05-30T09:59:08.640Z,2.40
2019-05-30T10:01:37.074Z,2.70
2019-05-30T10:04:05.498Z,3.00
2019-05-30T10:06:33.913Z,2.27
2019-05-30T10:09:02.354Z,2.00
2019-05-30T10:11:30.769Z,1.67
2019-05-30T10:13:59.201Z,1.50
2019-05-30T10:16:27.615Z,1.98
2019-05-30T10:18:57.073Z,1.72
2019-05-30T10:21:25.660Z,1.40
2019-05-30T10:23:54.092Z,1.60
2019-05-30T10:26:22.507Z,1.30
2019-05-30T10:28:51.419Z,2.00
2019-05-30T10:31:19.967Z,1.60
2019-05-30T10:33:49.369Z,1.55
2019-05-30T10:36:20.071Z,1.50
2019-05-30T10:38:49.088Z,1.50
2019-05-30T10:41:18.370Z,1.30
2019-05-30T10:43:47.430Z,1.25
2019-05-30T10:46:16.958Z,1.77
2019-05-30T10:48:47.299Z,1.65
2019-05-30T10:51:19.168Z,2.25
2019-05-30T10:53:49.000Z,1.85
2019-05-30T10:56:17.933Z,1.77
2019-05-30T10:58:47.981Z,1.25
2019-05-30T11:01:16.429Z,1.70
2019-05-30T11:03:46.015Z,1.80
2019-05-30T11:06:34.593Z,1.50
2019-05-30T11:09:01.860Z,1.20
2019-05-30T11:11:30.291Z,1.70
2019-05-30T11:13:58.713Z,1.57
2019-05-30T11:16:27.139Z,1.30
2019-05-30T11:18:56.192Z,1.20
2019-05-30T11:21:24.705Z,1.55
2019-05-30T11:23:54.316Z,1.50
2019-05-30T11:26:22.857Z,1.45
2019-05-30T11:28:51.522Z,1.47
2019-05-30T11:31:20.800Z,1.40
2019-05-30T11:33:49.218Z,1.72
2019-05-30T11:36:17.899Z,1.22
2019-05-30T11:38:46.389Z,1.20
2019-05-30T11:41:14.806Z,1.30
2019-05-30T11:43:43.253Z,1.00
2019-05-30T11:46:11.659Z,0.80
2019-05-30T11:48:40.096Z,0.57
2019-05-30T11:51:08.542Z,0.72
2019-05-30T11:53:36.986Z,0.70
2019-05-30T11:56:05.414Z,0.60
2019-05-30T11:58:33.831Z,0.70
2019-05-30T12:01:02.252Z,0.53
2019-05-30T12:03:30.703Z,0.60
2019-05-30T12:05:59.116Z,0.70
2019-05-30T12:08:27.552Z,0.75
2019-05-30T12:10:57.097Z,1.10
2019-05-30T12:13:25.623Z,0.80
2019-05-30T12:15:55.307Z,1.10
2019-05-30T12:18:23.867Z,0.87
2019-05-30T12:20:53.514Z,0.60
2019-05-30T12:23:22.020Z,0.60
2019-05-30T12:25:51.856Z,0.90
2019-05-30T12:28:20.376Z,1.50
2019-05-30T12:30:56.724Z,0.93
2019-05-30T12:33:18.893Z,0.80
2019-05-30T12:35:48.497Z,1.50
2019-05-30T12:38:16.953Z,0.78
2019-05-30T12:40:45.401Z,0.70
2019-05-30T12:43:13.816Z,0.70
2019-05-30T12:45:42.232Z,0.70
2019-05-30T12:48:10.661Z,0.70
2019-05-30T12:50:39.092Z,0.78
2019-05-30T12:53:07.545Z,0.90
2019-05-30T12:55:37.635Z,0.78
2019-05-30T12:58:07.171Z,1.40
2019-05-30T13:00:36.422Z,0.95
2019-05-30T13:03:04.877Z,0.82
2019-05-30T13:05:33.293Z,1.37
2019-05-30T13:08:17.647Z,0.78
2019-05-30T13:10:31.855Z,0.57
2019-05-30T13:15:34.832Z,1.90
2019-05-30T13:20:37.718Z,2.00
2019-05-30T13:23:06.971Z,1.90
2019-05-30T13:25:35.486Z,1.77
2019-05-30T13:28:07.157Z,1.10
2019-05-30T13:30:33.994Z,1.45
2019-05-30T13:33:03.075Z,1.07
2019-05-30T13:35:31.572Z,0.60
2019-05-30T13:38:01.169Z,0.90
2019-05-30T13:40:29.858Z,0.80
2019-05-30T13:42:59.622Z,1.22
2019-05-30T13:45:28.132Z,1.30
2019-05-30T13:47:56.549Z,1.32
2019-05-30T13:50:25.015Z,0.93
2019-05-30T13:52:53.557Z,1.10
2019-05-30T13:55:22.001Z,1.05
2019-05-30T13:57:50.490Z,0.98
2019-05-30T14:00:19.017Z,0.70
2019-05-30T14:02:47.452Z,1.20
2019-05-30T14:05:15.908Z,0.90
2019-05-30T14:07:44.402Z,0.82
2019-05-30T14:10:12.992Z,0.85
2019-05-30T14:12:41.500Z,0.85
2019-05-30T14:15:13.744Z,0.88
2019-05-30T14:17:40.565Z,0.90
2019-05-30T14:20:09.192Z,1.00
2019-05-30T14:22:37.623Z,1.17
2019-05-30T14:25:11.618Z,0.60
2019-05-30T14:27:40.295Z,1.30
2019-05-30T14:30:09.182Z,1.20
2019-05-30T14:32:37.740Z,1.50
2019-05-30T14:35:06.686Z,1.90
2019-05-30T14:37:35.113Z,1.60
2019-05-30T14:40:05.110Z,1.87
2019-05-30T14:42:33.543Z,2.30
2019-05-30T14:45:01.982Z,2.10
2019-05-30T14:47:30.408Z,1.72
2019-05-30T14:49:58.855Z,1.60
2019-05-30T14:52:27.886Z,2.05
2019-05-30T14:54:56.319Z,1.92
2019-05-30T14:57:24.757Z,2.27
2019-05-30T14:59:53.199Z,1.75
2019-05-30T15:02:21.644Z,1.65
2019-05-30T15:04:50.108Z,1.10
2019-05-30T15:07:18.547Z,0.70
2019-05-30T15:09:46.988Z,0.65
2019-05-30T15:12:16.797Z,0.70
2019-05-30T15:14:45.458Z,0.72
2019-05-30T15:17:14.271Z,0.90
2019-05-30T15:19:42.842Z,0.60
2019-05-30T15:22:14.673Z,0.62
2019-05-30T15:24:41.427Z,0.90
2019-05-30T15:27:10.104Z,0.70
2019-05-30T15:29:38.683Z,0.75
2019-05-30T15:32:08.157Z,0.62
2019-05-30T15:34:36.635Z,0.80
2019-05-30T15:37:05.098Z,0.53
2019-05-30T15:39:33.545Z,0.80
2019-05-30T15:42:01.976Z,0.98
2019-05-30T15:44:30.407Z,0.80
2019-05-30T15:46:58.833Z,0.70
2019-05-30T15:49:27.265Z,0.78
2019-05-30T15:51:55.740Z,0.60
2019-05-30T15:54:24.178Z,0.70
2019-05-30T15:56:52.615Z,0.90
2019-05-30T15:59:21.039Z,0.80
2019-05-30T16:01:49.503Z,0.98
2019-05-30T16:04:18.292Z,0.93
2019-05-30T16:06:46.758Z,0.78
2019-05-30T16:09:15.172Z,0.80
2019-05-30T16:11:43.625Z,0.75
2019-05-30T16:14:13.130Z,0.65
2019-05-30T16:16:41.694Z,0.72
2019-05-30T16:19:17.266Z,1.05
2019-05-30T16:21:40.255Z,0.80
2019-05-30T16:24:08.701Z,0.85
2019-05-30T16:29:13.662Z,0.78
2019-05-30T16:34:16.460Z,1.00
2019-05-30T16:36:44.898Z,1.05
2019-05-30T16:39:13.997Z,1.15
2019-05-30T16:41:43.138Z,0.90
2019-05-30T16:44:11.784Z,1.35
2019-05-30T16:46:44.563Z,1.10
2019-05-30T16:49:13.037Z,1.05
2019-05-30T16:51:41.482Z,0.93
2019-05-30T16:54:09.942Z,1.00
2019-05-30T16:56:38.328Z,0.90
2019-05-30T16:59:06.911Z,0.80
2019-05-30T17:01:35.376Z,1.37
2019-05-30T17:04:03.932Z,0.80
2019-05-30T17:06:32.323Z,1.10
2019-05-30T17:09:00.759Z,0.90
2019-05-30T17:11:29.191Z,1.05
2019-05-30T17:13:57.608Z,1.17
2019-05-30T17:16:26.304Z,1.35
2019-05-30T17:18:54.750Z,1.60
2019-05-30T17:21:23.233Z,1.27
2019-05-30T17:23:51.647Z,1.45
2019-05-30T17:26:21.263Z,1.40
2019-05-30T17:28:49.730Z,1.00
2019-05-30T17:31:18.170Z,0.68
2019-05-30T17:33:46.625Z,0.80
2019-05-30T17:36:15.063Z,1.00
2019-05-30T17:38:43.509Z,1.47
2019-05-30T17:41:11.942Z,1.65
2019-05-30T17:43:40.391Z,1.50
2019-05-30T17:46:08.813Z,1.40
2019-05-30T17:48:37.260Z,1.50
2019-05-30T17:51:05.707Z,1.37
2019-05-30T17:53:34.149Z,1.80
2019-05-30T17:56:02.602Z,1.65
2019-05-30T17:58:31.072Z,1.72
2019-05-30T18:00:59.489Z,1.65
2019-05-30T18:03:28.510Z,2.10
2019-05-30T18:05:56.961Z,2.33
2019-05-30T18:08:26.873Z,2.30
2019-05-30T18:10:55.289Z,2.17
2019-05-30T18:13:24.955Z,1.85
2019-05-30T18:15:53.455Z,1.62
2019-05-30T18:18:23.052Z,2.10
2019-05-30T18:20:51.617Z,1.72
2019-05-30T18:23:21.300Z,1.70
2019-05-30T18:25:49.793Z,1.80
2019-05-30T18:28:18.192Z,2.30
2019-05-30T18:30:46.553Z,1.80
2019-05-30T18:33:14.956Z,2.20
2019-05-30T18:35:43.354Z,1.90
2019-05-30T18:38:11.762Z,2.22
2019-05-30T18:40:42.699Z,2.15
2019-05-30T18:43:10.802Z,2.27
2019-05-30T18:45:39.783Z,1.90
2019-05-30T18:48:08.254Z,2.10
2019-05-30T18:50:36.635Z,1.98
2019-05-30T18:53:05.314Z,2.17
2019-05-30T18:55:33.707Z,2.30
2019-05-30T18:58:02.075Z,2.00
2019-05-30T19:00:31.246Z,1.90
2019-05-30T19:02:59.648Z,2.37
2019-05-30T19:05:28.578Z,2.27
2019-05-30T19:07:57.025Z,2.10
2019-05-30T19:10:26.090Z,2.05
2019-05-30T19:12:54.513Z,2.22
2019-05-30T19:15:22.902Z,2.27
2019-05-30T19:17:51.344Z,2.22
2019-05-30T19:20:29.664Z,3.30
2019-05-30T19:22:54.438Z,2.45
2019-05-30T19:25:22.824Z,2.67
2019-05-30T19:27:51.290Z,2.90
2019-05-30T19:30:19.640Z,2.70
2019-05-30T19:32:48.079Z,2.62
2019-05-30T19:35:18.443Z,2.40
2019-05-30T19:37:47.888Z,2.22
2019-05-30T19:40:16.305Z,2.02
2019-05-30T19:42:44.786Z,2.10
2019-05-30T19:45:13.236Z,2.25
2019-05-30T19:50:16.161Z,2.45
2019-05-30T19:52:46.893Z,2.52
2019-05-30T19:55:14.786Z,2.22
2019-05-30T19:57:43.260Z,2.20
2019-05-30T20:00:11.900Z,2.15
2019-05-30T20:05:15.732Z,1.92
2019-05-30T20:07:44.549Z,1.90
2019-05-30T20:10:13.150Z,1.55
2019-05-30T20:12:44.664Z,1.92
2019-05-30T20:15:13.238Z,1.70
2019-05-30T20:17:55.966Z,2.10
2019-05-30T20:20:24.557Z,1.55
2019-05-30T20:22:53.001Z,2.22
2019-05-30T20:25:22.409Z,1.47
2019-05-30T20:27:51.026Z,2.10
2019-05-30T20:30:19.500Z,1.60
2019-05-30T20:32:47.976Z,2.12
2019-05-30T20:35:16.546Z,1.90
2019-05-30T20:37:53.541Z,1.95
2019-05-30T20:40:22.025Z,1.80
2019-05-30T20:42:50.471Z,1.70
2019-05-30T20:47:52.580Z,1.20
2019-05-30T20:50:21.439Z,1.32
2019-05-30T20:52:49.853Z,1.50
2019-05-30T20:55:18.302Z,1.72
2019-05-30T20:57:46.950Z,1.30
2019-05-30T21:00:16.183Z,1.77
2019-05-30T21:02:44.589Z,1.65
2019-05-30T21:05:13.020Z,1.60
2019-05-30T21:07:42.456Z,1.50
2019-05-30T21:10:11.749Z,1.62
2019-05-30T21:12:44.448Z,1.55
2019-05-30T21:15:10.667Z,1.20
2019-05-30T21:17:39.739Z,1.22
2019-05-30T21:20:11.144Z,1.37
2019-05-30T21:22:38.346Z,1.40
2019-05-30T21:25:07.280Z,1.37
2019-05-30T21:27:36.913Z,1.47
2019-05-30T21:30:06.242Z,1.42
2019-05-30T21:32:34.700Z,1.30
2019-05-30T21:35:03.456Z,1.40
2019-05-30T21:37:31.936Z,1.22
2019-05-30T21:40:00.376Z,1.40
2019-05-30T21:42:28.828Z,1.67
2019-05-30T21:44:57.262Z,1.30
2019-05-30T21:47:25.677Z,1.32
2019-05-30T21:49:54.121Z,1.50
2019-05-30T21:52:22.544Z,1.50
2019-05-30T21:54:50.997Z,1.40
2019-05-30T21:57:19.417Z,1.50
2019-05-30T21:59:48.924Z,1.82
2019-05-30T22:02:17.446Z,2.10
2019-05-30T22:04:46.534Z,1.90
2019-05-30T22:07:15.030Z,2.08
2019-05-30T22:12:12.904Z,2.08
2019-05-30T22:14:41.751Z,1.72
2019-05-30T22:17:10.315Z,1.55
2019-05-30T22:19:38.785Z,2.30
2019-05-30T22:22:07.252Z,2.25
2019-05-30T22:24:35.663Z,1.90
2019-05-30T22:27:04.117Z,2.00
2019-05-30T22:29:32.578Z,1.92
2019-05-30T22:32:01.025Z,2.30
2019-05-30T22:34:29.519Z,1.92
2019-05-30T22:36:57.951Z,1.70
2019-05-30T22:39:27.951Z,2.22
2019-05-30T22:41:56.497Z,2.17
2019-05-30T22:44:24.999Z,2.15
2019-05-30T22:46:53.442Z,2.12
2019-05-30T22:49:21.895Z,2.10
2019-05-30T22:51:51.129Z,2.30
2019-05-30T22:54:19.619Z,2.05
2019-05-30T22:56:48.077Z,1.85
2019-05-30T22:59:16.511Z,2.17
2019-05-30T23:01:45.006Z,2.33
2019-05-30T23:04:13.468Z,1.92
2019-05-30T23:06:41.903Z,1.70
2019-05-30T23:09:10.408Z,1.65
2019-05-30T23:11:38.845Z,1.70
2019-05-30T23:14:09.188Z,1.87
2019-05-30T23:16:37.644Z,1.60
2019-05-30T23:19:06.085Z,1.80
2019-05-30T23:21:34.559Z,1.87
2019-05-30T23:24:03.330Z,1.70
2019-05-30T23:26:31.758Z,1.65
2019-05-30T23:29:00.198Z,1.70
2019-05-30T23:31:28.648Z,1.92
2019-05-30T23:33:58.549Z,1.60
2019-05-30T23:36:27.154Z,1.27
2019-05-30T23:38:56.808Z,1.87
2019-05-30T23:41:25.356Z,1.40
2019-05-30T23:44:05.501Z,1.40
2019-05-30T23:46:23.931Z,1.27
2019-05-30T23:48:53.526Z,1.40
2019-05-30T23:51:24.992Z,1.90
2019-05-30T23:53:54.071Z,1.67
2019-05-30T23:56:22.670Z,1.70
2019-05-30T23:58:52.425Z,1.77
